sensor_id;sensor_type;location;lat;lon;timestamp;P1;durP1;ratioP1;P2;durP2;ratioP2
20076;SDS011;12348;42.710;23.378;2023-07-08T00:01:07;17.57;;;11.73;;
20076;SDS011;12348;42.710;23.378;2023-07-08T00:03:36;19.53;;;12.93;;
20076;SDS011;12348;42.710;23.378;2023-07-08T00:06:03;19.30;;;14.00;;
20076;SDS011;12348;42.710;23.378;2023-07-08T00:08:31;23.23;;;14.03;;
20076;SDS011;12348;42.710;23.378;2023-07-08T00:10:58;24.57;;;14.40;;
20076;SDS011;12348;42.710;23.378;2023-07-08T00:13:25;25.00;;;15.50;;
20076;SDS011;12348;42.710;23.378;2023-07-08T00:15:51;22.97;;;15.00;;
20076;SDS011;12348;42.710;23.378;2023-07-08T00:18:19;22.87;;;15.67;;
20076;SDS011;12348;42.710;23.378;2023-07-08T00:20:47;22.97;;;14.83;;
20076;SDS011;12348;42.710;23.378;2023-07-08T00:23:15;25.33;;;14.30;;
20076;SDS011;12348;42.710;23.378;2023-07-08T00:25:43;25.73;;;14.97;;
20076;SDS011;12348;42.710;23.378;2023-07-08T00:28:10;21.27;;;15.37;;
20076;SDS011;12348;42.710;23.378;2023-07-08T00:30:40;30.90;;;15.43;;
20076;SDS011;12348;42.710;23.378;2023-07-08T00:33:06;19.17;;;15.03;;
20076;SDS011;12348;42.710;23.378;2023-07-08T00:35:34;23.80;;;15.63;;
20076;SDS011;12348;42.710;23.378;2023-07-08T00:38:07;22.30;;;15.73;;
20076;SDS011;12348;42.710;23.378;2023-07-08T00:40:48;23.80;;;16.40;;
20076;SDS011;12348;42.710;23.378;2023-07-08T00:43:16;21.27;;;15.20;;
20076;SDS011;12348;42.710;23.378;2023-07-08T00:45:46;24.50;;;15.30;;
20076;SDS011;12348;42.710;23.378;2023-07-08T00:48:18;23.07;;;16.17;;
20076;SDS011;12348;42.710;23.378;2023-07-08T00:50:50;21.33;;;16.40;;
20076;SDS011;12348;42.710;23.378;2023-07-08T00:53:24;18.73;;;15.07;;
20076;SDS011;12348;42.710;23.378;2023-07-08T00:55:54;17.53;;;14.30;;
20076;SDS011;12348;42.710;23.378;2023-07-08T00:58:24;27.03;;;15.13;;
20076;SDS011;12348;42.710;23.378;2023-07-08T01:00:53;20.37;;;14.87;;
20076;SDS011;12348;42.710;23.378;2023-07-08T01:03:22;19.70;;;15.00;;
20076;SDS011;12348;42.710;23.378;2023-07-08T01:05:50;21.07;;;14.97;;
20076;SDS011;12348;42.710;23.378;2023-07-08T01:08:17;24.43;;;15.20;;
20076;SDS011;12348;42.710;23.378;2023-07-08T01:10:48;20.10;;;15.40;;
20076;SDS011;12348;42.710;23.378;2023-07-08T01:13:20;20.83;;;13.80;;
20076;SDS011;12348;42.710;23.378;2023-07-08T01:15:49;21.23;;;14.37;;
20076;SDS011;12348;42.710;23.378;2023-07-08T01:18:17;19.70;;;14.40;;
20076;SDS011;12348;42.710;23.378;2023-07-08T01:20:46;20.83;;;13.80;;
20076;SDS011;12348;42.710;23.378;2023-07-08T01:23:15;22.27;;;14.70;;
20076;SDS011;12348;42.710;23.378;2023-07-08T01:25:43;18.23;;;13.17;;
20076;SDS011;12348;42.710;23.378;2023-07-08T01:28:11;20.03;;;13.33;;
20076;SDS011;12348;42.710;23.378;2023-07-08T01:30:39;18.17;;;12.77;;
20076;SDS011;12348;42.710;23.378;2023-07-08T01:33:19;17.97;;;13.77;;
20076;SDS011;12348;42.710;23.378;2023-07-08T01:35:47;16.40;;;12.13;;
20076;SDS011;12348;42.710;23.378;2023-07-08T01:38:17;19.63;;;12.97;;
20076;SDS011;12348;42.710;23.378;2023-07-08T01:40:48;18.77;;;12.60;;
20076;SDS011;12348;42.710;23.378;2023-07-08T01:43:16;14.63;;;11.43;;
20076;SDS011;12348;42.710;23.378;2023-07-08T01:45:43;20.47;;;11.33;;
20076;SDS011;12348;42.710;23.378;2023-07-08T01:48:11;16.20;;;11.67;;
20076;SDS011;12348;42.710;23.378;2023-07-08T01:50:42;16.83;;;12.03;;
20076;SDS011;12348;42.710;23.378;2023-07-08T01:53:12;23.63;;;11.33;;
20076;SDS011;12348;42.710;23.378;2023-07-08T01:55:42;17.77;;;12.07;;
20076;SDS011;12348;42.710;23.378;2023-07-08T01:58:09;18.60;;;10.30;;
20076;SDS011;12348;42.710;23.378;2023-07-08T02:00:36;18.53;;;12.03;;
20076;SDS011;12348;42.710;23.378;2023-07-08T02:03:03;20.53;;;11.87;;
20076;SDS011;12348;42.710;23.378;2023-07-08T02:05:30;16.53;;;11.93;;
20076;SDS011;12348;42.710;23.378;2023-07-08T02:07:56;16.60;;;11.07;;
20076;SDS011;12348;42.710;23.378;2023-07-08T02:10:23;14.57;;;10.53;;
20076;SDS011;12348;42.710;23.378;2023-07-08T02:12:53;19.87;;;11.03;;
20076;SDS011;12348;42.710;23.378;2023-07-08T02:15:20;20.27;;;12.53;;
20076;SDS011;12348;42.710;23.378;2023-07-08T02:17:46;15.83;;;11.10;;
20076;SDS011;12348;42.710;23.378;2023-07-08T02:20:14;15.47;;;11.37;;
20076;SDS011;12348;42.710;23.378;2023-07-08T02:22:41;14.77;;;10.97;;
20076;SDS011;12348;42.710;23.378;2023-07-08T02:25:08;17.40;;;11.67;;
20076;SDS011;12348;42.710;23.378;2023-07-08T02:27:36;16.13;;;11.67;;
20076;SDS011;12348;42.710;23.378;2023-07-08T02:30:05;16.13;;;11.57;;
20076;SDS011;12348;42.710;23.378;2023-07-08T02:32:33;14.73;;;10.80;;
20076;SDS011;12348;42.710;23.378;2023-07-08T02:35:00;15.20;;;11.43;;
20076;SDS011;12348;42.710;23.378;2023-07-08T02:37:28;13.63;;;11.10;;
20076;SDS011;12348;42.710;23.378;2023-07-08T02:39:55;17.80;;;12.60;;
20076;SDS011;12348;42.710;23.378;2023-07-08T02:42:23;16.40;;;11.90;;
20076;SDS011;12348;42.710;23.378;2023-07-08T02:44:50;19.57;;;12.97;;
20076;SDS011;12348;42.710;23.378;2023-07-08T02:47:18;18.30;;;13.37;;
20076;SDS011;12348;42.710;23.378;2023-07-08T02:49:45;18.90;;;12.40;;
20076;SDS011;12348;42.710;23.378;2023-07-08T02:52:12;23.57;;;12.13;;
20076;SDS011;12348;42.710;23.378;2023-07-08T02:54:39;17.33;;;11.60;;
20076;SDS011;12348;42.710;23.378;2023-07-08T02:57:05;18.10;;;11.17;;
20076;SDS011;12348;42.710;23.378;2023-07-08T02:59:32;14.67;;;10.50;;
20076;SDS011;12348;42.710;23.378;2023-07-08T03:01:59;17.50;;;11.20;;
20076;SDS011;12348;42.710;23.378;2023-07-08T03:04:26;14.87;;;10.07;;
20076;SDS011;12348;42.710;23.378;2023-07-08T03:06:55;13.57;;;10.10;;
20076;SDS011;12348;42.710;23.378;2023-07-08T03:09:21;14.50;;;10.53;;
20076;SDS011;12348;42.710;23.378;2023-07-08T03:11:49;15.03;;;11.07;;
20076;SDS011;12348;42.710;23.378;2023-07-08T03:14:16;16.03;;;9.67;;
20076;SDS011;12348;42.710;23.378;2023-07-08T03:16:43;13.83;;;9.63;;
20076;SDS011;12348;42.710;23.378;2023-07-08T03:19:10;15.93;;;9.70;;
20076;SDS011;12348;42.710;23.378;2023-07-08T03:21:41;17.23;;;11.20;;
20076;SDS011;12348;42.710;23.378;2023-07-08T03:24:09;14.47;;;10.83;;
20076;SDS011;12348;42.710;23.378;2023-07-08T03:26:37;15.57;;;11.13;;
20076;SDS011;12348;42.710;23.378;2023-07-08T03:29:04;15.53;;;11.23;;
20076;SDS011;12348;42.710;23.378;2023-07-08T03:31:31;20.43;;;10.30;;
20076;SDS011;12348;42.710;23.378;2023-07-08T03:33:58;21.70;;;11.63;;
20076;SDS011;12348;42.710;23.378;2023-07-08T03:36:25;17.93;;;12.87;;
20076;SDS011;12348;42.710;23.378;2023-07-08T03:38:54;18.07;;;12.67;;
20076;SDS011;12348;42.710;23.378;2023-07-08T03:41:22;20.80;;;10.83;;
20076;SDS011;12348;42.710;23.378;2023-07-08T03:43:49;23.27;;;11.83;;
20076;SDS011;12348;42.710;23.378;2023-07-08T03:46:17;14.80;;;9.83;;
20076;SDS011;12348;42.710;23.378;2023-07-08T03:48:44;25.03;;;9.23;;
20076;SDS011;12348;42.710;23.378;2023-07-08T03:51:13;17.07;;;10.07;;
20076;SDS011;12348;42.710;23.378;2023-07-08T03:53:46;15.20;;;10.47;;
20076;SDS011;12348;42.710;23.378;2023-07-08T03:56:14;13.80;;;7.80;;
20076;SDS011;12348;42.710;23.378;2023-07-08T03:58:41;12.60;;;7.77;;
20076;SDS011;12348;42.710;23.378;2023-07-08T04:01:09;12.07;;;8.50;;
20076;SDS011;12348;42.710;23.378;2023-07-08T04:03:40;9.40;;;7.27;;
20076;SDS011;12348;42.710;23.378;2023-07-08T04:06:07;10.97;;;7.67;;
20076;SDS011;12348;42.710;23.378;2023-07-08T04:08:34;15.10;;;7.67;;
20076;SDS011;12348;42.710;23.378;2023-07-08T04:11:01;13.27;;;7.27;;
20076;SDS011;12348;42.710;23.378;2023-07-08T04:13:30;11.70;;;7.10;;
20076;SDS011;12348;42.710;23.378;2023-07-08T04:15:59;11.03;;;7.87;;
20076;SDS011;12348;42.710;23.378;2023-07-08T04:18:27;12.50;;;8.23;;
20076;SDS011;12348;42.710;23.378;2023-07-08T04:20:54;12.40;;;8.30;;
20076;SDS011;12348;42.710;23.378;2023-07-08T04:23:21;12.47;;;8.40;;
20076;SDS011;12348;42.710;23.378;2023-07-08T04:25:48;15.07;;;8.73;;
20076;SDS011;12348;42.710;23.378;2023-07-08T04:28:16;14.07;;;8.23;;
20076;SDS011;12348;42.710;23.378;2023-07-08T04:30:45;10.47;;;6.87;;
20076;SDS011;12348;42.710;23.378;2023-07-08T04:33:12;11.33;;;7.43;;
20076;SDS011;12348;42.710;23.378;2023-07-08T04:35:40;13.20;;;6.53;;
20076;SDS011;12348;42.710;23.378;2023-07-08T04:38:09;9.20;;;6.33;;
20076;SDS011;12348;42.710;23.378;2023-07-08T04:40:42;13.33;;;7.47;;
20076;SDS011;12348;42.710;23.378;2023-07-08T04:43:09;8.10;;;6.43;;
20076;SDS011;12348;42.710;23.378;2023-07-08T04:45:37;9.70;;;7.20;;
20076;SDS011;12348;42.710;23.378;2023-07-08T04:48:08;14.23;;;6.83;;
20076;SDS011;12348;42.710;23.378;2023-07-08T04:50:39;7.93;;;5.90;;
20076;SDS011;12348;42.710;23.378;2023-07-08T04:53:06;8.27;;;5.43;;
20076;SDS011;12348;42.710;23.378;2023-07-08T04:55:36;7.70;;;5.60;;
20076;SDS011;12348;42.710;23.378;2023-07-08T04:58:04;7.80;;;5.73;;
20076;SDS011;12348;42.710;23.378;2023-07-08T05:00:30;8.87;;;5.80;;
20076;SDS011;12348;42.710;23.378;2023-07-08T05:02:57;9.70;;;6.30;;
20076;SDS011;12348;42.710;23.378;2023-07-08T05:05:25;9.27;;;6.20;;
20076;SDS011;12348;42.710;23.378;2023-07-08T05:07:52;8.63;;;6.90;;
20076;SDS011;12348;42.710;23.378;2023-07-08T05:10:19;11.17;;;5.80;;
20076;SDS011;12348;42.710;23.378;2023-07-08T05:12:47;7.50;;;5.57;;
20076;SDS011;12348;42.710;23.378;2023-07-08T05:15:14;9.37;;;6.20;;
20076;SDS011;12348;42.710;23.378;2023-07-08T05:17:42;10.17;;;6.53;;
20076;SDS011;12348;42.710;23.378;2023-07-08T05:20:10;15.67;;;7.27;;
20076;SDS011;12348;42.710;23.378;2023-07-08T05:22:40;9.27;;;5.93;;
20076;SDS011;12348;42.710;23.378;2023-07-08T05:25:08;9.17;;;6.40;;
20076;SDS011;12348;42.710;23.378;2023-07-08T05:27:35;11.20;;;6.67;;
20076;SDS011;12348;42.710;23.378;2023-07-08T05:30:02;7.00;;;5.63;;
20076;SDS011;12348;42.710;23.378;2023-07-08T05:32:29;8.77;;;6.10;;
20076;SDS011;12348;42.710;23.378;2023-07-08T05:34:56;8.27;;;6.00;;
20076;SDS011;12348;42.710;23.378;2023-07-08T05:37:23;7.53;;;6.50;;
20076;SDS011;12348;42.710;23.378;2023-07-08T05:39:52;7.87;;;5.70;;
20076;SDS011;12348;42.710;23.378;2023-07-08T05:42:19;10.30;;;7.13;;
20076;SDS011;12348;42.710;23.378;2023-07-08T05:44:46;6.93;;;6.23;;
20076;SDS011;12348;42.710;23.378;2023-07-08T05:47:13;11.07;;;7.43;;
20076;SDS011;12348;42.710;23.378;2023-07-08T05:49:41;9.77;;;6.57;;
20076;SDS011;12348;42.710;23.378;2023-07-08T05:52:08;14.37;;;8.47;;
20076;SDS011;12348;42.710;23.378;2023-07-08T05:54:36;14.43;;;8.13;;
20076;SDS011;12348;42.710;23.378;2023-07-08T05:57:05;9.60;;;6.77;;
20076;SDS011;12348;42.710;23.378;2023-07-08T05:59:33;12.27;;;7.40;;
20076;SDS011;12348;42.710;23.378;2023-07-08T06:02:01;8.77;;;6.93;;
20076;SDS011;12348;42.710;23.378;2023-07-08T06:04:28;14.07;;;7.33;;
20076;SDS011;12348;42.710;23.378;2023-07-08T06:06:56;16.93;;;7.90;;
20076;SDS011;12348;42.710;23.378;2023-07-08T06:09:23;12.83;;;8.03;;
20076;SDS011;12348;42.710;23.378;2023-07-08T06:11:50;9.47;;;7.33;;
20076;SDS011;12348;42.710;23.378;2023-07-08T06:14:19;11.20;;;7.40;;
20076;SDS011;12348;42.710;23.378;2023-07-08T06:16:45;12.83;;;7.10;;
20076;SDS011;12348;42.710;23.378;2023-07-08T06:19:12;14.83;;;9.40;;
20076;SDS011;12348;42.710;23.378;2023-07-08T06:21:40;10.00;;;7.13;;
20076;SDS011;12348;42.710;23.378;2023-07-08T06:24:07;10.30;;;8.57;;
20076;SDS011;12348;42.710;23.378;2023-07-08T06:26:34;13.10;;;7.80;;
20076;SDS011;12348;42.710;23.378;2023-07-08T06:29:01;12.13;;;7.47;;
20076;SDS011;12348;42.710;23.378;2023-07-08T06:31:29;12.77;;;7.83;;
20076;SDS011;12348;42.710;23.378;2023-07-08T06:33:56;8.33;;;6.63;;
20076;SDS011;12348;42.710;23.378;2023-07-08T06:36:23;10.53;;;7.63;;
20076;SDS011;12348;42.710;23.378;2023-07-08T06:38:50;12.87;;;7.27;;
20076;SDS011;12348;42.710;23.378;2023-07-08T06:41:17;8.53;;;6.57;;
20076;SDS011;12348;42.710;23.378;2023-07-08T06:43:44;12.50;;;6.90;;
20076;SDS011;12348;42.710;23.378;2023-07-08T06:46:11;7.73;;;6.33;;
20076;SDS011;12348;42.710;23.378;2023-07-08T06:48:39;11.47;;;6.53;;
20076;SDS011;12348;42.710;23.378;2023-07-08T06:51:06;10.13;;;6.53;;
20076;SDS011;12348;42.710;23.378;2023-07-08T06:53:33;16.10;;;6.90;;
20076;SDS011;12348;42.710;23.378;2023-07-08T06:56:00;10.57;;;5.93;;
20076;SDS011;12348;42.710;23.378;2023-07-08T06:58:27;18.33;;;6.70;;
20076;SDS011;12348;42.710;23.378;2023-07-08T07:00:54;10.00;;;6.57;;
20076;SDS011;12348;42.710;23.378;2023-07-08T07:03:22;10.57;;;6.73;;
20076;SDS011;12348;42.710;23.378;2023-07-08T07:05:52;7.83;;;5.60;;
20076;SDS011;12348;42.710;23.378;2023-07-08T07:08:18;14.97;;;6.57;;
20076;SDS011;12348;42.710;23.378;2023-07-08T07:10:45;8.40;;;5.10;;
20076;SDS011;12348;42.710;23.378;2023-07-08T07:13:12;7.87;;;6.37;;
20076;SDS011;12348;42.710;23.378;2023-07-08T07:15:39;9.57;;;7.07;;
20076;SDS011;12348;42.710;23.378;2023-07-08T07:18:05;11.27;;;6.10;;
20076;SDS011;12348;42.710;23.378;2023-07-08T07:20:32;7.87;;;5.90;;
20076;SDS011;12348;42.710;23.378;2023-07-08T07:23:01;10.87;;;6.40;;
20076;SDS011;12348;42.710;23.378;2023-07-08T07:25:27;10.70;;;6.17;;
20076;SDS011;12348;42.710;23.378;2023-07-08T07:27:54;13.67;;;6.67;;
20076;SDS011;12348;42.710;23.378;2023-07-08T07:30:21;10.43;;;5.73;;
20076;SDS011;12348;42.710;23.378;2023-07-08T07:32:48;10.27;;;7.07;;
20076;SDS011;12348;42.710;23.378;2023-07-08T07:35:14;9.03;;;5.83;;
20076;SDS011;12348;42.710;23.378;2023-07-08T07:37:42;7.73;;;5.90;;
20076;SDS011;12348;42.710;23.378;2023-07-08T07:40:12;8.57;;;5.77;;
20076;SDS011;12348;42.710;23.378;2023-07-08T07:42:41;10.17;;;5.67;;
20076;SDS011;12348;42.710;23.378;2023-07-08T07:45:09;8.80;;;6.13;;
20076;SDS011;12348;42.710;23.378;2023-07-08T07:47:36;9.70;;;5.90;;
20076;SDS011;12348;42.710;23.378;2023-07-08T07:50:03;10.33;;;5.67;;
20076;SDS011;12348;42.710;23.378;2023-07-08T07:52:31;6.20;;;4.90;;
20076;SDS011;12348;42.710;23.378;2023-07-08T07:54:58;6.87;;;4.67;;
20076;SDS011;12348;42.710;23.378;2023-07-08T07:57:27;9.27;;;5.63;;
20076;SDS011;12348;42.710;23.378;2023-07-08T07:59:53;7.80;;;6.03;;
20076;SDS011;12348;42.710;23.378;2023-07-08T08:02:20;5.83;;;5.13;;
20076;SDS011;12348;42.710;23.378;2023-07-08T08:04:47;8.63;;;5.50;;
20076;SDS011;12348;42.710;23.378;2023-07-08T08:07:13;6.63;;;5.43;;
20076;SDS011;12348;42.710;23.378;2023-07-08T08:09:40;7.10;;;5.20;;
20076;SDS011;12348;42.710;23.378;2023-07-08T08:12:08;7.13;;;5.13;;
20076;SDS011;12348;42.710;23.378;2023-07-08T08:14:38;10.83;;;5.67;;
20076;SDS011;12348;42.710;23.378;2023-07-08T08:17:05;11.30;;;5.73;;
20076;SDS011;12348;42.710;23.378;2023-07-08T08:19:32;10.60;;;7.07;;
20076;SDS011;12348;42.710;23.378;2023-07-08T08:21:59;7.77;;;6.17;;
20076;SDS011;12348;42.710;23.378;2023-07-08T08:24:26;8.20;;;6.80;;
20076;SDS011;12348;42.710;23.378;2023-07-08T08:26:52;12.80;;;7.53;;
20076;SDS011;12348;42.710;23.378;2023-07-08T08:29:19;10.27;;;6.73;;
20076;SDS011;12348;42.710;23.378;2023-07-08T08:31:47;8.60;;;6.67;;
20076;SDS011;12348;42.710;23.378;2023-07-08T08:34:15;8.73;;;6.13;;
20076;SDS011;12348;42.710;23.378;2023-07-08T08:36:42;7.53;;;6.43;;
20076;SDS011;12348;42.710;23.378;2023-07-08T08:39:09;12.27;;;8.03;;
20076;SDS011;12348;42.710;23.378;2023-07-08T08:41:36;18.57;;;7.53;;
20076;SDS011;12348;42.710;23.378;2023-07-08T08:44:04;7.27;;;5.70;;
20076;SDS011;12348;42.710;23.378;2023-07-08T08:46:36;10.23;;;6.43;;
20076;SDS011;12348;42.710;23.378;2023-07-08T08:49:12;7.70;;;5.67;;
20076;SDS011;12348;42.710;23.378;2023-07-08T08:51:44;12.50;;;6.50;;
20076;SDS011;12348;42.710;23.378;2023-07-08T08:54:11;7.23;;;6.23;;
20076;SDS011;12348;42.710;23.378;2023-07-08T08:56:39;10.97;;;6.80;;
20076;SDS011;12348;42.710;23.378;2023-07-08T08:59:14;10.20;;;5.90;;
20076;SDS011;12348;42.710;23.378;2023-07-08T09:01:49;10.67;;;6.57;;
20076;SDS011;12348;42.710;23.378;2023-07-08T09:04:20;10.17;;;6.17;;
20076;SDS011;12348;42.710;23.378;2023-07-08T09:06:51;8.53;;;5.43;;
20076;SDS011;12348;42.710;23.378;2023-07-08T09:09:25;11.23;;;6.10;;
20076;SDS011;12348;42.710;23.378;2023-07-08T09:11:57;7.87;;;5.73;;
20076;SDS011;12348;42.710;23.378;2023-07-08T09:14:30;6.57;;;5.30;;
20076;SDS011;12348;42.710;23.378;2023-07-08T09:17:09;10.53;;;4.80;;
20076;SDS011;12348;42.710;23.378;2023-07-08T09:19:47;7.40;;;5.27;;
20076;SDS011;12348;42.710;23.378;2023-07-08T09:22:19;5.47;;;4.80;;
20076;SDS011;12348;42.710;23.378;2023-07-08T09:24:54;8.25;;;5.97;;
20076;SDS011;12348;42.710;23.378;2023-07-08T09:27:25;6.00;;;4.63;;
20076;SDS011;12348;42.710;23.378;2023-07-08T09:29:52;6.28;;;5.10;;
20076;SDS011;12348;42.710;23.378;2023-07-08T09:32:18;8.60;;;4.70;;
20076;SDS011;12348;42.710;23.378;2023-07-08T09:34:49;6.13;;;5.43;;
20076;SDS011;12348;42.710;23.378;2023-07-08T09:37:21;6.37;;;4.90;;
20076;SDS011;12348;42.710;23.378;2023-07-08T09:39:49;6.75;;;5.10;;
20076;SDS011;12348;42.710;23.378;2023-07-08T09:42:17;5.63;;;4.32;;
20076;SDS011;12348;42.710;23.378;2023-07-08T09:44:47;8.18;;;4.75;;
20076;SDS011;12348;42.710;23.378;2023-07-08T09:47:20;6.70;;;4.80;;
20076;SDS011;12348;42.710;23.378;2023-07-08T09:49:50;7.28;;;4.68;;
20076;SDS011;12348;42.710;23.378;2023-07-08T09:52:18;6.65;;;4.93;;
20076;SDS011;12348;42.710;23.378;2023-07-08T09:54:45;6.43;;;5.00;;
20076;SDS011;12348;42.710;23.378;2023-07-08T09:57:16;5.20;;;4.70;;
20076;SDS011;12348;42.710;23.378;2023-07-08T09:59:53;6.38;;;4.75;;
20076;SDS011;12348;42.710;23.378;2023-07-08T10:02:31;5.23;;;4.40;;
20076;SDS011;12348;42.710;23.378;2023-07-08T10:05:07;8.55;;;4.82;;
20076;SDS011;12348;42.710;23.378;2023-07-08T10:07:39;6.37;;;4.83;;
20076;SDS011;12348;42.710;23.378;2023-07-08T10:10:08;5.72;;;4.38;;
20076;SDS011;12348;42.710;23.378;2023-07-08T10:12:40;6.10;;;4.57;;
20076;SDS011;12348;42.710;23.378;2023-07-08T10:15:13;6.27;;;5.10;;
20076;SDS011;12348;42.710;23.378;2023-07-08T10:17:46;5.07;;;4.10;;
20076;SDS011;12348;42.710;23.378;2023-07-08T10:20:14;5.03;;;4.53;;
20076;SDS011;12348;42.710;23.378;2023-07-08T10:22:43;6.90;;;4.43;;
20076;SDS011;12348;42.710;23.378;2023-07-08T10:25:25;8.77;;;4.40;;
20076;SDS011;12348;42.710;23.378;2023-07-08T10:28:01;6.57;;;5.68;;
20076;SDS011;12348;42.710;23.378;2023-07-08T10:30:38;5.65;;;4.15;;
20076;SDS011;12348;42.710;23.378;2023-07-08T10:33:17;4.63;;;3.90;;
20076;SDS011;12348;42.710;23.378;2023-07-08T10:36:07;6.32;;;3.90;;
20076;SDS011;12348;42.710;23.378;2023-07-08T10:38:46;6.75;;;4.97;;
20076;SDS011;12348;42.710;23.378;2023-07-08T10:41:25;5.25;;;4.03;;
20076;SDS011;12348;42.710;23.378;2023-07-08T10:44:02;6.30;;;4.70;;
20076;SDS011;12348;42.710;23.378;2023-07-08T10:46:37;8.03;;;5.27;;
20076;SDS011;12348;42.710;23.378;2023-07-08T10:49:20;5.37;;;4.50;;
20076;SDS011;12348;42.710;23.378;2023-07-08T10:52:01;6.33;;;4.47;;
20076;SDS011;12348;42.710;23.378;2023-07-08T10:54:47;10.73;;;4.83;;
20076;SDS011;12348;42.710;23.378;2023-07-08T10:57:53;8.00;;;4.87;;
20076;SDS011;12348;42.710;23.378;2023-07-08T11:00:40;6.57;;;4.80;;
20076;SDS011;12348;42.710;23.378;2023-07-08T11:03:29;7.00;;;4.50;;
20076;SDS011;12348;42.710;23.378;2023-07-08T11:06:10;6.93;;;3.97;;
20076;SDS011;12348;42.710;23.378;2023-07-08T11:08:42;6.17;;;4.30;;
20076;SDS011;12348;42.710;23.378;2023-07-08T11:11:14;5.63;;;4.43;;
20076;SDS011;12348;42.710;23.378;2023-07-08T11:13:52;6.30;;;4.63;;
20076;SDS011;12348;42.710;23.378;2023-07-08T11:16:24;6.43;;;4.63;;
20076;SDS011;12348;42.710;23.378;2023-07-08T11:18:56;5.23;;;4.63;;
20076;SDS011;12348;42.710;23.378;2023-07-08T11:21:35;8.20;;;4.90;;
20076;SDS011;12348;42.710;23.378;2023-07-08T11:24:10;4.90;;;4.20;;
20076;SDS011;12348;42.710;23.378;2023-07-08T11:26:43;6.43;;;4.90;;
20076;SDS011;12348;42.710;23.378;2023-07-08T11:29:15;6.10;;;3.53;;
20076;SDS011;12348;42.710;23.378;2023-07-08T11:31:44;5.63;;;4.97;;
20076;SDS011;12348;42.710;23.378;2023-07-08T11:34:12;4.03;;;3.63;;
20076;SDS011;12348;42.710;23.378;2023-07-08T11:36:41;5.60;;;4.23;;
20076;SDS011;12348;42.710;23.378;2023-07-08T11:42:04;5.03;;;3.83;;
20076;SDS011;12348;42.710;23.378;2023-07-08T11:44:41;5.67;;;4.30;;
20076;SDS011;12348;42.710;23.378;2023-07-08T11:47:13;6.23;;;4.23;;
20076;SDS011;12348;42.710;23.378;2023-07-08T11:49:45;4.90;;;4.23;;
20076;SDS011;12348;42.710;23.378;2023-07-08T11:52:14;9.83;;;4.50;;
20076;SDS011;12348;42.710;23.378;2023-07-08T11:54:46;6.90;;;4.10;;
20076;SDS011;12348;42.710;23.378;2023-07-08T11:57:18;6.70;;;4.17;;
20076;SDS011;12348;42.710;23.378;2023-07-08T11:59:57;5.00;;;4.17;;
20076;SDS011;12348;42.710;23.378;2023-07-08T12:02:47;8.10;;;4.63;;
20076;SDS011;12348;42.710;23.378;2023-07-08T12:05:19;5.20;;;4.17;;
20076;SDS011;12348;42.710;23.378;2023-07-08T12:07:56;5.60;;;4.43;;
20076;SDS011;12348;42.710;23.378;2023-07-08T12:10:26;6.70;;;3.73;;
20076;SDS011;12348;42.710;23.378;2023-07-08T12:12:58;4.37;;;3.57;;
20076;SDS011;12348;42.710;23.378;2023-07-08T12:15:25;6.73;;;3.70;;
20076;SDS011;12348;42.710;23.378;2023-07-08T12:17:55;6.50;;;4.33;;
20076;SDS011;12348;42.710;23.378;2023-07-08T12:20:26;4.10;;;3.70;;
20076;SDS011;12348;42.710;23.378;2023-07-08T12:22:54;6.40;;;3.87;;
20076;SDS011;12348;42.710;23.378;2023-07-08T12:25:22;5.50;;;3.80;;
20076;SDS011;12348;42.710;23.378;2023-07-08T12:27:54;5.97;;;3.63;;
20076;SDS011;12348;42.710;23.378;2023-07-08T12:30:22;5.90;;;4.10;;
20076;SDS011;12348;42.710;23.378;2023-07-08T12:32:49;4.70;;;3.93;;
20076;SDS011;12348;42.710;23.378;2023-07-08T12:35:22;9.63;;;4.00;;
20076;SDS011;12348;42.710;23.378;2023-07-08T12:37:51;4.53;;;3.43;;
20076;SDS011;12348;42.710;23.378;2023-07-08T12:40:20;7.70;;;4.93;;
20076;SDS011;12348;42.710;23.378;2023-07-08T12:42:47;6.80;;;4.60;;
20076;SDS011;12348;42.710;23.378;2023-07-08T12:45:16;4.23;;;3.43;;
20076;SDS011;12348;42.710;23.378;2023-07-08T12:47:46;6.30;;;4.10;;
20076;SDS011;12348;42.710;23.378;2023-07-08T12:50:13;4.20;;;3.80;;
20076;SDS011;12348;42.710;23.378;2023-07-08T12:52:42;4.47;;;3.47;;
20076;SDS011;12348;42.710;23.378;2023-07-08T12:55:10;6.10;;;3.33;;
20076;SDS011;12348;42.710;23.378;2023-07-08T12:57:39;5.07;;;3.63;;
20076;SDS011;12348;42.710;23.378;2023-07-08T13:00:10;3.27;;;2.90;;
20076;SDS011;12348;42.710;23.378;2023-07-08T13:02:43;8.00;;;3.70;;
20076;SDS011;12348;42.710;23.378;2023-07-08T13:05:12;4.63;;;3.30;;
20076;SDS011;12348;42.710;23.378;2023-07-08T13:07:39;3.97;;;3.23;;
20076;SDS011;12348;42.710;23.378;2023-07-08T13:10:15;6.27;;;3.77;;
20076;SDS011;12348;42.710;23.378;2023-07-08T13:12:45;5.27;;;3.27;;
20076;SDS011;12348;42.710;23.378;2023-07-08T13:15:17;6.50;;;2.83;;
20076;SDS011;12348;42.710;23.378;2023-07-08T13:17:48;5.00;;;3.20;;
20076;SDS011;12348;42.710;23.378;2023-07-08T13:20:16;6.50;;;3.80;;
20076;SDS011;12348;42.710;23.378;2023-07-08T13:22:45;6.27;;;3.07;;
20076;SDS011;12348;42.710;23.378;2023-07-08T13:25:18;5.27;;;3.30;;
20076;SDS011;12348;42.710;23.378;2023-07-08T13:27:56;6.77;;;3.33;;
20076;SDS011;12348;42.710;23.378;2023-07-08T13:30:25;5.00;;;3.30;;
20076;SDS011;12348;42.710;23.378;2023-07-08T13:32:55;6.53;;;3.17;;
20076;SDS011;12348;42.710;23.378;2023-07-08T13:35:26;4.70;;;3.13;;
20076;SDS011;12348;42.710;23.378;2023-07-08T13:37:56;6.77;;;3.20;;
20076;SDS011;12348;42.710;23.378;2023-07-08T13:40:26;5.73;;;3.30;;
20076;SDS011;12348;42.710;23.378;2023-07-08T13:42:53;6.27;;;3.53;;
20076;SDS011;12348;42.710;23.378;2023-07-08T13:45:22;5.60;;;3.20;;
20076;SDS011;12348;42.710;23.378;2023-07-08T13:48:03;5.80;;;2.87;;
20076;SDS011;12348;42.710;23.378;2023-07-08T13:50:40;7.93;;;3.70;;
20076;SDS011;12348;42.710;23.378;2023-07-08T13:53:16;7.47;;;3.60;;
20076;SDS011;12348;42.710;23.378;2023-07-08T13:55:44;5.93;;;3.37;;
20076;SDS011;12348;42.710;23.378;2023-07-08T13:58:14;7.97;;;3.33;;
20076;SDS011;12348;42.710;23.378;2023-07-08T14:00:42;4.90;;;3.00;;
20076;SDS011;12348;42.710;23.378;2023-07-08T14:03:11;6.17;;;3.87;;
20076;SDS011;12348;42.710;23.378;2023-07-08T14:05:43;6.70;;;3.93;;
20076;SDS011;12348;42.710;23.378;2023-07-08T14:08:12;6.87;;;3.83;;
20076;SDS011;12348;42.710;23.378;2023-07-08T14:10:40;9.47;;;3.10;;
20076;SDS011;12348;42.710;23.378;2023-07-08T14:13:07;6.07;;;3.23;;
20076;SDS011;12348;42.710;23.378;2023-07-08T14:15:36;4.33;;;2.30;;
20076;SDS011;12348;42.710;23.378;2023-07-08T14:18:03;3.93;;;3.07;;
20076;SDS011;12348;42.710;23.378;2023-07-08T14:20:32;4.03;;;3.10;;
20076;SDS011;12348;42.710;23.378;2023-07-08T14:22:58;3.47;;;2.77;;
20076;SDS011;12348;42.710;23.378;2023-07-08T14:25:25;4.73;;;2.73;;
20076;SDS011;12348;42.710;23.378;2023-07-08T14:27:52;4.57;;;3.00;;
20076;SDS011;12348;42.710;23.378;2023-07-08T14:30:19;5.67;;;3.70;;
20076;SDS011;12348;42.710;23.378;2023-07-08T14:32:47;3.83;;;3.13;;
20076;SDS011;12348;42.710;23.378;2023-07-08T14:35:15;7.80;;;4.93;;
20076;SDS011;12348;42.710;23.378;2023-07-08T14:37:46;4.07;;;2.70;;
20076;SDS011;12348;42.710;23.378;2023-07-08T14:40:19;4.30;;;2.90;;
20076;SDS011;12348;42.710;23.378;2023-07-08T14:42:52;6.57;;;3.80;;